Time;durP1;ratioP1;P1;durP2;ratioP2;P2;SDS_P1;SDS_P2;PMS_P1;PMS_P2;Temp;Humidity;BMP_temperature;BMP_pressure;BME280_temperature;BME280_humidity;BME280_pressure;Samples;Min_cycle;Max_cycle;Signal;HPM_P1;HPM_P2
2023/10/22 00:02:09;;;;;;;0.50;0.50;;;;;;;;;;5004002;28;20045;-82
2023/10/22 00:04:35;;;;;;;0.50;0.50;;;;;;;;;;5005215;28;20018;-83
2023/10/22 00:07:01;;;;;;;1.13;0.70;;;;;;;;;;5004804;28;20034;-83
2023/10/22 00:09:27;;;;;;;0.40;0.40;;;;;;;;;;5006959;28;20038;-83
2023/10/22 00:11:53;;;;;;;0.50;0.50;;;;;;;;;;5014039;28;20558;-82
2023/10/22 00:14:19;;;;;;;0.40;0.40;;;;;;;;;;5010808;28;20069;-83
2023/10/22 00:16:46;;;;;;;0.60;0.60;;;;;;;;;;5010306;28;20034;-84
2023/10/22 00:19:12;;;;;;;0.40;0.40;;;;;;;;;;5009008;28;20322;-83
2023/10/22 00:21:38;;;;;;;0.45;0.45;;;;;;;;;;5010568;28;20026;-84
2023/10/22 00:24:04;;;;;;;0.43;0.43;;;;;;;;;;5010587;28;20042;-84
2023/10/22 00:26:30;;;;;;;0.43;0.43;;;;;;;;;;5007986;28;20041;-84
2023/10/22 00:28:56;;;;;;;0.40;0.40;;;;;;;;;;5008454;28;20019;-83
2023/10/22 00:31:22;;;;;;;0.50;0.50;;;;;;;;;;5008957;28;20052;-81
2023/10/22 00:33:49;;;;;;;0.50;0.50;;;;;;;;;;5003976;28;20022;-83
2023/10/22 00:36:15;;;;;;;0.50;0.50;;;;;;;;;;5004528;28;20022;-83
2023/10/22 00:38:42;;;;;;;0.40;0.40;;;;;;;;;;5003285;28;20037;-82
2023/10/22 00:41:08;;;;;;;0.52;0.52;;;;;;;;;;5003064;28;20110;-82
2023/10/22 00:43:36;;;;;;;0.40;0.40;;;;;;;;;;5004253;28;20033;-82
2023/10/22 00:46:02;;;;;;;0.50;0.50;;;;;;;;;;5001612;28;20026;-83
2023/10/22 00:48:29;;;;;;;0.50;0.50;;;;;;;;;;5000920;28;20093;-84
2023/10/22 00:50:55;;;;;;;0.50;0.50;;;;;;;;;;5001307;28;20118;-84
2023/10/22 00:53:23;;;;;;;0.50;0.50;;;;;;;;;;5005518;28;20026;-84
2023/10/22 00:55:50;;;;;;;0.50;0.50;;;;;;;;;;5005321;28;20026;-83
2023/10/22 00:58:17;;;;;;;0.40;0.40;;;;;;;;;;5004185;28;20022;-83
2023/10/22 01:00:45;;;;;;;0.40;0.40;;;512.10;2380.80;;;;;;5005703;28;20030;-81
2023/10/22 01:03:11;;;;;;;0.40;0.40;;;487.30;2380.80;;;;;;5006285;28;20038;-83
2023/10/22 01:05:38;;;;;;;0.40;0.40;;;487.10;2380.80;;;;;;5006519;28;20442;-83
2023/10/22 01:08:08;;;;;;;0.40;0.40;;;487.20;2380.80;;;;;;5006875;28;20049;-83
2023/10/22 01:10:34;;;;;;;0.47;0.47;;;486.70;2380.80;;;;;;5006884;28;20031;-83
2023/10/22 01:13:00;;;;;;;0.40;0.40;;;487.20;2380.80;;;;;;5006214;28;20494;-86
2023/10/22 01:15:26;;;;;;;0.50;0.50;;;487.10;2380.80;;;;;;5006288;28;20027;-82
2023/10/22 01:17:53;;;;;;;0.50;0.50;;;487.10;2380.80;;;;;;5006935;28;20018;-83
2023/10/22 01:20:19;;;;;;;0.50;0.50;;;487.10;2380.80;;;;;;5005671;28;20026;-82
2023/10/22 01:22:45;;;;;;;0.50;0.50;;;487.10;2380.80;;;;;;5005682;28;20101;-82
2023/10/22 01:25:11;;;;;;;0.50;0.50;;;487.00;2380.80;;;;;;5007071;28;20557;-83
2023/10/22 01:27:37;;;;;;;0.50;0.50;;;487.00;2380.80;;;;;;5007805;28;20030;-83
2023/10/22 01:30:04;;;;;;;0.40;0.40;;;486.90;2380.80;;;;;;5007753;28;20030;-83
2023/10/22 01:32:30;;;;;;;0.50;0.50;;;486.80;2380.80;;;;;;5011387;28;20094;-84
2023/10/22 01:35:01;;;;;;;0.45;0.45;;;;;;;;;;5010428;28;20037;-85
2023/10/22 01:37:27;;;;;;;0.50;0.50;;;;;;;;;;5005227;28;20026;-85
2023/10/22 01:39:54;;;;;;;0.82;0.82;;;487.20;2380.80;;;;;;5005923;28;20038;-83
2023/10/22 01:42:20;;;;;;;0.50;0.50;;;487.10;2380.80;;;;;;4987114;28;20035;-84
2023/10/22 01:44:46;;;;;;;0.50;0.50;;;487.10;2380.80;;;;;;4969063;28;20043;-81
2023/10/22 01:47:12;;;;;;;0.50;0.50;;;487.10;2380.80;;;;;;4984557;28;20094;-83
2023/10/22 01:49:38;;;;;;;0.50;0.50;;;487.00;2380.80;;;;;;4966647;28;20058;-82
2023/10/22 01:52:04;;;;;;;0.50;0.50;;;486.90;2380.80;;;;;;4984995;28;20461;-81
2023/10/22 01:54:30;;;;;;;0.40;0.40;;;487.10;2380.80;;;;;;4967247;28;20539;-84
2023/10/22 01:56:57;;;;;;;0.50;0.50;;;487.10;2380.80;;;;;;4969067;28;20522;-84
2023/10/22 01:59:23;;;;;;;0.73;0.73;;;486.80;2380.80;;;;;;4953543;28;20089;-81
2023/10/22 02:01:48;;;;;;;0.43;0.43;;;487.30;2380.80;;;;;;4970713;28;20066;-83
2023/10/22 02:04:14;;;;;;;0.50;0.50;;;512.00;2380.80;;;;;;4972095;28;20057;-84
2023/10/22 02:06:40;;;;;;;0.50;0.50;;;512.10;2380.80;;;;;;4973317;28;20106;-82
2023/10/22 02:09:06;;;;;;;1.55;0.60;;;512.20;2380.80;;;;;;4984106;28;20050;-83
2023/10/22 02:11:33;;;;;;;0.40;0.40;;;512.30;2380.80;;;;;;4964375;28;20042;-82
2023/10/22 02:13:59;;;;;;;0.50;0.50;;;512.40;2380.80;;;;;;4966532;28;20035;-85
2023/10/22 02:16:26;;;;;;;0.40;0.40;;;512.40;2380.80;;;;;;4982498;28;20038;-84
2023/10/22 02:18:52;;;;;;;0.40;0.40;;;512.40;2380.80;;;;;;4972218;28;20038;-82
2023/10/22 02:21:21;;;;;;;0.40;0.40;;;512.40;2380.80;;;;;;5007004;28;20022;-84
2023/10/22 02:23:49;;;;;;;0.50;0.50;;;512.40;2380.80;;;;;;5008107;28;20049;-85
2023/10/22 02:26:18;;;;;;;0.45;0.45;;;512.40;2380.80;;;;;;4996452;28;20014;-83
2023/10/22 02:28:44;;;;;;;0.40;0.40;;;512.40;2380.80;;;;;;5009203;28;20042;-85
2023/10/22 02:31:10;;;;;;;0.40;0.40;;;512.30;2380.80;;;;;;4991731;28;20134;-84
2023/10/22 02:33:39;;;;;;;0.50;0.50;;;512.30;2380.80;;;;;;5009483;28;20057;-83
2023/10/22 02:36:06;;;;;;;0.47;0.47;;;512.30;2380.80;;;;;;4990099;28;20030;-81
2023/10/22 02:38:39;;;;;;;0.50;0.50;;;512.30;2380.80;;;;;;4988834;28;20053;-87
2023/10/22 02:41:22;;;;;;;0.57;0.55;;;512.40;2380.80;;;;;;5002568;28;20050;-85
2023/10/22 02:43:48;;;;;;;0.50;0.50;;;512.40;2380.80;;;;;;4987544;28;20034;-84
2023/10/22 02:46:17;;;;;;;0.50;0.50;;;512.40;2380.80;;;;;;4989676;28;20038;-83
2023/10/22 02:48:43;;;;;;;0.50;0.50;;;512.40;2380.80;;;;;;4992819;28;20026;-83
2023/10/22 02:51:09;;;;;;;0.40;0.40;;;512.40;2355.20;;;;;;4992872;28;20026;-82
2023/10/22 02:53:35;;;;;;;0.40;0.40;;;512.60;2355.20;;;;;;4995633;28;20023;-82
2023/10/22 02:56:02;;;;;;;0.40;0.40;;;512.60;2355.20;;;;;;4985725;28;20093;-80
2023/10/22 02:58:31;;;;;;;0.40;0.40;;;512.60;2355.20;;;;;;4979873;28;20537;-81
2023/10/22 03:01:07;;;;;;;0.40;0.40;;;512.60;2329.60;;;;;;4981095;28;20038;-81
2023/10/22 03:03:38;;;;;;;0.40;0.40;;;512.60;2355.20;;;;;;4981154;28;20027;-80
2023/10/22 03:06:08;;;;;;;0.40;0.40;;;512.60;2355.20;;;;;;4980870;28;20038;-81
2023/10/22 03:08:35;;;;;;;0.50;0.50;;;512.60;2355.20;;;;;;4980343;28;20109;-80
2023/10/22 03:11:03;;;;;;;0.50;0.50;;;512.60;2355.20;;;;;;4981661;28;20045;-80
2023/10/22 03:13:29;;;;;;;0.40;0.40;;;486.70;2355.20;;;;;;5000309;28;20034;-81
2023/10/22 03:15:55;;;;;;;0.50;0.50;;;512.60;2355.20;;;;;;4990671;28;20031;-81
2023/10/22 03:18:22;;;;;;;0.40;0.40;;;512.60;2355.20;;;;;;5010739;28;20486;-81
2023/10/22 03:20:50;;;;;;;0.40;0.40;;;512.60;2355.20;;;;;;5013731;28;20026;-83
2023/10/22 03:23:16;;;;;;;0.45;0.45;;;512.60;2380.80;;;;;;4973949;29;20527;-82
2023/10/22 03:25:45;;;;;;;0.82;0.60;;;512.50;2380.80;;;;;;4960531;29;20038;-82
2023/10/22 03:28:10;;;;;;;0.40;0.40;;;512.40;2380.80;;;;;;4959445;29;20023;-83
2023/10/22 03:30:40;;;;;;;0.50;0.50;;;512.30;2380.80;;;;;;4959605;29;20558;-81
2023/10/22 03:33:06;;;;;;;0.50;0.50;;;512.30;2380.80;;;;;;4955695;29;20031;-82
2023/10/22 03:35:35;;;;;;;0.50;0.50;;;512.30;2380.80;;;;;;4956415;29;20028;-82
2023/10/22 03:38:01;;;;;;;0.40;0.40;;;512.20;2380.80;;;;;;4957853;29;20103;-82
2023/10/22 03:40:27;;;;;;;0.40;0.40;;;512.20;2380.80;;;;;;4956564;29;20117;-81
2023/10/22 03:42:53;;;;;;;0.40;0.40;;;512.20;2380.80;;;;;;4956078;29;20036;-81
2023/10/22 03:45:19;;;;;;;0.40;0.40;;;512.00;2380.80;;;;;;4958765;29;20030;-81
2023/10/22 03:47:45;;;;;;;0.50;0.50;;;487.30;2380.80;;;;;;4954274;29;20055;-80
2023/10/22 03:50:10;;;;;;;0.30;0.30;;;487.30;2380.80;;;;;;4950540;29;20020;-82
2023/10/22 03:52:36;;;;;;;0.40;0.40;;;487.30;2380.80;;;;;;4947852;29;20046;-80
2023/10/22 03:55:04;;;;;;;0.40;0.40;;;487.30;2380.80;;;;;;4994362;28;20087;-80
2023/10/22 03:57:30;;;;;;;0.70;0.70;;;487.30;2380.80;;;;;;5002804;28;20102;-81
2023/10/22 03:59:56;;;;;;;0.40;0.40;;;487.20;2380.80;;;;;;5005878;28;20034;-80
2023/10/22 04:02:23;;;;;;;0.40;0.40;;;487.20;2380.80;;;;;;5012183;28;20022;-81
2023/10/22 04:04:48;;;;;;;0.50;0.50;;;487.20;2380.80;;;;;;5011119;28;20371;-81
2023/10/22 04:07:14;;;;;;;0.40;0.40;;;487.20;2380.80;;;;;;5010954;28;20180;-81
2023/10/22 04:09:40;;;;;;;0.40;0.40;;;487.10;2380.80;;;;;;5014127;28;20013;-81
2023/10/22 04:12:06;;;;;;;0.45;0.45;;;487.20;2380.80;;;;;;5019103;28;20036;-81
2023/10/22 04:14:35;;;;;;;0.40;0.40;;;487.10;2380.80;;;;;;5015094;28;20045;-82
2023/10/22 04:17:01;;;;;;;0.50;0.50;;;487.10;2380.80;;;;;;5009539;28;20030;-81
2023/10/22 04:19:27;;;;;;;0.40;0.40;;;487.10;2380.80;;;;;;5009925;28;20041;-82
2023/10/22 04:21:52;;;;;;;0.50;0.50;;;487.00;2380.80;;;;;;5010786;28;20030;-82
2023/10/22 04:24:18;;;;;;;0.40;0.40;;;487.00;2380.80;;;;;;5010703;28;20066;-82
2023/10/22 04:26:44;;;;;;;0.65;0.65;;;486.90;2380.80;;;;;;5010616;28;20065;-81
2023/10/22 04:29:10;;;;;;;0.50;0.50;;;486.90;2380.80;;;;;;5006380;28;20030;-81
2023/10/22 04:31:36;;;;;;;0.60;0.60;;;486.80;2380.80;;;;;;5006450;28;20089;-81
2023/10/22 04:34:02;;;;;;;0.40;0.40;;;486.80;2380.80;;;;;;5005732;28;20445;-80
2023/10/22 04:36:28;;;;;;;0.40;0.40;;;486.70;2380.80;;;;;;5006908;28;20042;-80
2023/10/22 04:38:54;;;;;;;0.40;0.40;;;486.70;2380.80;;;;;;5006943;28;20023;-81
2023/10/22 04:41:20;;;;;;;0.50;0.50;;;486.60;2380.80;;;;;;5008582;28;20018;-81
2023/10/22 04:43:45;;;;;;;0.50;0.50;;;486.60;2380.80;;;;;;5005798;28;20089;-81
2023/10/22 04:46:12;;;;;;;0.50;0.50;;;;;;;;;;5003163;28;20038;-81
2023/10/22 04:48:38;;;;;;;0.50;0.50;;;486.40;2380.80;;;;;;5005280;28;20022;-81
2023/10/22 04:51:06;;;;;;;0.60;0.60;;;461.70;2380.80;;;;;;5004477;28;20528;-83
2023/10/22 04:53:34;;;;;;;0.60;0.60;;;461.70;2380.80;;;;;;5004270;28;20120;-81
2023/10/22 04:56:01;;;;;;;0.40;0.40;;;461.60;2380.80;;;;;;5003391;28;20132;-82
2023/10/22 04:58:28;;;;;;;0.50;0.50;;;461.10;2380.80;;;;;;5002600;28;20030;-82
2023/10/22 05:00:55;;;;;;;0.50;0.50;;;461.50;2380.80;;;;;;5003062;28;20041;-81
2023/10/22 05:03:21;;;;;;;0.50;0.50;;;461.40;2380.80;;;;;;5002666;28;20029;-82
2023/10/22 05:05:47;;;;;;;0.50;0.50;;;461.40;2380.80;;;;;;5002645;28;20042;-83
2023/10/22 05:08:13;;;;;;;0.50;0.50;;;461.20;2380.80;;;;;;5002904;28;20164;-83
2023/10/22 05:10:39;;;;;;;0.60;0.60;;;461.20;2380.80;;;;;;5003486;28;20030;-81
2023/10/22 05:13:06;;;;;;;0.50;0.50;;;461.20;2380.80;;;;;;5002877;28;20113;-83
2023/10/22 05:15:32;;;;;;;0.60;0.60;;;460.90;2380.80;;;;;;5003564;28;20030;-82
2023/10/22 05:17:57;;;;;;;0.50;0.50;;;461.30;2380.80;;;;;;5003035;28;20109;-83
2023/10/22 05:20:28;;;;;;;0.50;0.50;;;461.20;2380.80;;;;;;5002976;28;20026;-82
2023/10/22 05:22:54;;;;;;;0.50;0.50;;;435.50;2355.20;;;;;;5003980;28;20041;-84
2023/10/22 05:25:23;;;;;;;0.60;0.60;;;461.20;2380.80;;;;;;5003422;28;20105;-82
2023/10/22 05:27:49;;;;;;;0.50;0.50;;;461.20;2380.80;;;;;;5003898;28;20035;-82
2023/10/22 05:30:15;;;;;;;0.50;0.50;;;461.20;2380.80;;;;;;5003421;28;20169;-81
2023/10/22 05:32:41;;;;;;;0.70;0.70;;;461.20;2380.80;;;;;;5002813;28;20046;-81
2023/10/22 05:35:07;;;;;;;0.60;0.60;;;461.20;2380.80;;;;;;5002925;28;20030;-82
2023/10/22 05:37:33;;;;;;;0.68;0.68;;;461.20;2380.80;;;;;;5004107;28;20034;-82
2023/10/22 05:40:00;;;;;;;0.60;0.60;;;461.20;2380.80;;;;;;5003856;28;20026;-81
2023/10/22 05:42:26;;;;;;;0.50;0.50;;;461.20;2380.80;;;;;;5002925;28;20054;-81
2023/10/22 05:44:52;;;;;;;0.50;0.50;;;461.10;2380.80;;;;;;5003305;28;20033;-82
2023/10/22 05:47:19;;;;;;;0.60;0.60;;;461.10;2380.80;;;;;;5002195;28;20033;-83
2023/10/22 05:49:48;;;;;;;0.60;0.60;;;461.10;2380.80;;;;;;4984959;28;20090;-82
2023/10/22 05:52:13;;;;;;;0.60;0.60;;;461.00;2380.80;;;;;;5001129;28;20112;-80
2023/10/22 05:54:39;;;;;;;0.60;0.60;;;461.00;2380.80;;;;;;5000192;28;20026;-81
2023/10/22 05:57:05;;;;;;;0.60;0.60;;;461.10;2380.80;;;;;;5002093;28;20026;-81
2023/10/22 05:59:33;;;;;;;0.60;0.60;;;461.10;2380.80;;;;;;5001272;28;20417;-81
2023/10/22 06:01:59;;;;;;;0.60;0.60;;;461.20;2380.80;;;;;;5002271;28;20030;-82
2023/10/22 06:04:25;;;;;;;0.50;0.50;;;461.20;2380.80;;;;;;5002375;28;20370;-81
2023/10/22 06:06:51;;;;;;;0.50;0.50;;;461.20;2380.80;;;;;;5002448;28;20030;-80
2023/10/22 06:09:18;;;;;;;0.50;0.50;;;435.80;2355.20;;;;;;5002673;28;20035;-82
2023/10/22 06:11:45;;;;;;;0.60;0.60;;;461.20;2380.80;;;;;;5007943;28;20030;-85
2023/10/22 06:14:11;;;;;;;0.50;0.50;;;461.30;2380.80;;;;;;5012062;28;20050;-84
2023/10/22 06:16:37;;;;;;;0.60;0.60;;;461.20;2380.80;;;;;;5008699;28;20034;-83
2023/10/22 06:19:03;;;;;;;0.57;0.57;;;461.20;2380.80;;;;;;5002545;28;20054;-80
2023/10/22 06:21:29;;;;;;;0.73;0.73;;;461.40;2380.80;;;;;;5000469;28;20095;-81
2023/10/22 06:23:55;;;;;;;0.50;0.50;;;461.40;2380.80;;;;;;5000434;28;20074;-81
2023/10/22 06:26:21;;;;;;;0.60;0.60;;;461.40;2380.80;;;;;;5001246;28;20467;-82
2023/10/22 06:28:47;;;;;;;0.50;0.50;;;461.40;2380.80;;;;;;4998577;28;20065;-81
2023/10/22 06:31:13;;;;;;;0.60;0.60;;;461.50;2380.80;;;;;;4999303;28;20035;-81
2023/10/22 06:33:41;;;;;;;0.60;0.60;;;461.60;2380.80;;;;;;5000399;28;20023;-80
2023/10/22 06:36:15;;;;;;;0.85;0.70;;;461.60;2380.80;;;;;;5000848;28;20484;-81
2023/10/22 06:38:43;;;;;;;0.60;0.60;;;461.70;2380.80;;;;;;5004236;28;20027;-81
2023/10/22 06:41:20;;;;;;;0.50;0.50;;;461.70;2380.80;;;;;;5004687;28;20026;-82
2023/10/22 06:43:47;;;;;;;0.50;0.50;;;486.40;2380.80;;;;;;5003099;28;20036;-81
2023/10/22 06:46:13;;;;;;;0.60;0.60;;;461.70;2380.80;;;;;;5003394;28;20037;-81
2023/10/22 06:48:42;;;;;;;0.60;0.60;;;461.70;2380.80;;;;;;5007596;28;20030;-81
2023/10/22 06:51:10;;;;;;;0.50;0.50;;;486.40;2380.80;;;;;;5010245;28;20022;-82
2023/10/22 06:53:37;;;;;;;0.50;0.50;;;486.40;2380.80;;;;;;5007857;28;20030;-82
2023/10/22 06:56:04;;;;;;;0.70;0.70;;;486.40;2380.80;;;;;;5011104;28;20446;-81
2023/10/22 06:58:30;;;;;;;0.60;0.60;;;461.70;2380.80;;;;;;5004404;28;20022;-82
2023/10/22 07:01:06;;;;;;;0.50;0.50;;;486.40;2380.80;;;;;;5007029;28;20126;-81
2023/10/22 07:03:39;;;;;;;0.60;0.60;;;486.40;2380.80;;;;;;5015187;28;20027;-83
2023/10/22 07:06:05;;;;;;;0.60;0.60;;;486.50;2380.80;;;;;;5011222;28;20038;-82
2023/10/22 07:08:31;;;;;;;0.60;0.60;;;486.60;2380.80;;;;;;5003350;28;20023;-81
2023/10/22 07:10:57;;;;;;;0.50;0.50;;;512.10;2380.80;;;;;;5001999;28;20037;-81
2023/10/22 07:13:24;;;;;;;0.50;0.50;;;486.70;2380.80;;;;;;5006440;28;20093;-82
2023/10/22 07:15:51;;;;;;;0.60;0.60;;;486.70;2380.80;;;;;;5005347;28;20028;-83
2023/10/22 07:18:28;;;;;;;0.50;0.50;;;486.80;2380.80;;;;;;5012369;28;20054;-84
2023/10/22 07:20:56;;;;;;;0.50;0.50;;;486.80;2380.80;;;;;;5012289;28;20046;-84
2023/10/22 07:23:34;;;;;;;0.50;0.50;;;486.90;2380.80;;;;;;5008246;28;20478;-86
2023/10/22 07:26:01;;;;;;;0.40;0.40;;;487.00;2380.80;;;;;;5011941;28;20046;-82
2023/10/22 07:28:28;;;;;;;0.60;0.60;;;487.00;2380.80;;;;;;4982505;28;20041;-85
2023/10/22 07:30:57;;;;;;;0.50;0.50;;;487.10;2380.80;;;;;;5015147;28;20046;-83
2023/10/22 07:33:26;;;;;;;0.88;0.60;;;487.20;2380.80;;;;;;4999760;28;20022;-85
2023/10/22 07:36:00;;;;;;;0.50;0.50;;;487.30;2380.80;;;;;;4995932;28;20022;-83
2023/10/22 07:38:32;;;;;;;0.50;0.50;;;512.00;2380.80;;;;;;5003189;28;20007;-83
2023/10/22 07:40:58;;;;;;;0.50;0.50;;;512.10;2380.80;;;;;;5000483;28;20050;-83
2023/10/22 07:43:27;;;;;;;0.55;0.55;;;512.20;2380.80;;;;;;4972512;28;20035;-81
2023/10/22 07:45:57;;;;;;;0.50;0.50;;;512.20;2380.80;;;;;;4996335;28;20521;-83
2023/10/22 07:48:25;;;;;;;1.13;1.02;;;512.30;2380.80;;;;;;4983502;28;20082;-82
2023/10/22 07:51:19;;;;;;;0.63;0.63;;;512.40;2380.80;;;;;;4986588;28;20022;-84
2023/10/22 07:53:46;;;;;;;0.50;0.50;;;512.60;2380.80;;;;;;4984109;28;20093;-79
2023/10/22 07:56:14;;;;;;;0.57;0.57;;;512.60;2380.80;;;;;;5005237;28;20488;-79
2023/10/22 07:58:40;;;;;;;0.93;0.93;;;512.80;2380.80;;;;;;5003635;28;20030;-79
2023/10/22 08:01:07;;;;;;;0.50;0.50;;;;;;;;;;5002930;28;20030;-79
2023/10/22 08:03:33;;;;;;;0.50;0.50;;;;;;;;;;4982294;28;20030;-78
2023/10/22 08:06:00;;;;;;;0.50;0.50;;;537.80;2406.40;;;;;;4982146;28;20033;-78
2023/10/22 08:08:26;;;;;;;0.47;0.47;;;537.90;2406.40;;;;;;4980629;28;20026;-79
2023/10/22 08:10:57;;;;;;;0.60;0.60;;;538.10;2406.40;;;;;;4980671;28;20382;-80
2023/10/22 08:13:23;;;;;;;0.60;0.60;;;538.10;2406.40;;;;;;4979610;28;20034;-79
2023/10/22 08:15:49;;;;;;;0.50;0.50;;;538.10;2406.40;;;;;;4979619;28;20084;-77
2023/10/22 08:18:15;;;;;;;0.47;0.47;;;538.30;2406.40;;;;;;4979701;28;20059;-81
2023/10/22 08:20:41;;;;;;;0.50;0.50;;;538.20;2406.40;;;;;;4968767;28;20464;-80
2023/10/22 08:23:08;;;;;;;0.50;0.50;;;563.20;2432.00;;;;;;4940773;29;20031;-79
2023/10/22 08:25:35;;;;;;;0.40;0.40;;;563.20;2432.00;;;;;;4954849;29;20492;-79
2023/10/22 08:28:01;;;;;;;0.40;0.40;;;563.20;2432.00;;;;;;4958987;28;20063;-80
2023/10/22 08:30:27;;;;;;;0.52;0.52;;;563.30;2432.00;;;;;;4957067;28;20032;-79
2023/10/22 08:32:53;;;;;;;0.50;0.50;;;563.40;2432.00;;;;;;4956430;28;20078;-78
2023/10/22 08:35:19;;;;;;;0.40;0.40;;;563.40;2432.00;;;;;;4956105;28;20031;-77
2023/10/22 08:37:44;;;;;;;0.40;0.40;;;563.40;2432.00;;;;;;4954749;28;20028;-79
2023/10/22 08:40:11;;;;;;;0.40;0.40;;;563.50;2432.00;;;;;;4956549;28;20023;-79
2023/10/22 08:42:37;;;;;;;0.30;0.30;;;563.50;2432.00;;;;;;4956441;28;20122;-78
2023/10/22 08:45:05;;;;;;;0.40;0.40;;;563.60;2432.00;;;;;;4956380;28;20027;-81
2023/10/22 08:47:31;;;;;;;0.50;0.50;;;563.60;2432.00;;;;;;4963937;28;20038;-81
2023/10/22 08:49:58;;;;;;;0.50;0.50;;;563.60;2432.00;;;;;;4956561;28;20027;-79
2023/10/22 08:52:24;;;;;;;0.50;0.50;;;563.70;2432.00;;;;;;4985529;28;20086;-80
2023/10/22 08:54:51;;;;;;;0.40;0.40;;;563.80;2432.00;;;;;;4981613;28;20459;-82
2023/10/22 08:57:21;;;;;;;0.40;0.40;;;563.90;2432.00;;;;;;4982753;28;20063;-81
2023/10/22 08:59:48;;;;;;;0.40;0.40;;;564.10;2432.00;;;;;;4988402;28;20027;-81
2023/10/22 09:02:33;;;;;;;0.63;0.63;;;589.10;2406.40;;;;;;4996170;28;20438;-81
2023/10/22 09:04:59;;;;;;;0.60;0.60;;;589.30;2380.80;;;;;;4995018;28;20085;-81
2023/10/22 09:07:54;;;;;;;0.30;0.30;;;589.50;2355.20;;;;;;4994340;28;20118;-78
2023/10/22 09:10:29;;;;;;;0.40;0.40;;;589.60;2355.20;;;;;;4958237;29;20464;-79
2023/10/22 09:13:09;;;;;;;0.47;0.47;;;;;;;;;;4956425;29;20034;-82
2023/10/22 09:15:54;;;;;;;0.40;0.40;;;614.50;2329.60;;;;;;4956200;29;20432;-84
2023/10/22 09:18:20;;;;;;;0.43;0.43;;;589.70;2329.60;;;;;;4955293;28;20476;-82
2023/10/22 09:20:46;;;;;;;0.50;0.50;;;614.40;2304.00;;;;;;4956136;29;20033;-80
2023/10/22 09:23:21;;;;;;;1.25;0.85;;;589.70;2329.60;;;;;;4955953;29;20035;-81
2023/10/22 09:25:47;;;;;;;0.40;0.40;;;589.70;2329.60;;;;;;4955307;29;20047;-83
2023/10/22 09:28:22;;;;;;;0.40;0.40;;;614.40;2329.60;;;;;;4955732;29;20035;-81
2023/10/22 09:31:01;;;;;;;0.47;0.47;;;614.80;2304.00;;;;;;4955689;29;20030;-79
2023/10/22 09:33:30;;;;;;;0.75;0.75;;;614.70;2304.00;;;;;;4955701;29;20038;-82
2023/10/22 09:36:02;;;;;;;0.38;0.38;;;614.90;2304.00;;;;;;4955640;29;20038;-82
2023/10/22 09:38:47;;;;;;;1.15;0.57;;;;;;;;;;4979592;28;20481;-81
2023/10/22 09:41:13;;;;;;;1.20;0.95;;;;;;;;;;4995034;28;20029;-81
2023/10/22 09:43:41;;;;;;;0.47;0.47;;;;;;;;;;4974624;28;20035;-80
2023/10/22 09:46:07;;;;;;;0.30;0.30;;;;;;;;;;4960138;28;20042;-81
2023/10/22 09:48:37;;;;;;;0.40;0.40;;;;;;;;;;4980570;28;20030;-80
2023/10/22 09:51:04;;;;;;;0.30;0.30;;;;;;;;;;4979599;28;20035;-84
2023/10/22 09:53:31;;;;;;;0.45;0.45;;;;;;;;;;4940281;29;20031;-83
2023/10/22 09:55:57;;;;;;;0.40;0.40;;;;;;;;;;4970420;28;20042;-81
2023/10/22 09:58:32;;;;;;;0.30;0.30;;;;;;;;;;4966160;28;20019;-80
2023/10/22 10:00:59;;;;;;;0.30;0.30;;;;;;;;;;4950656;28;20130;-79
2023/10/22 10:03:25;;;;;;;0.38;0.38;;;;;;;;;;4941636;28;20034;-79
2023/10/22 10:05:52;;;;;;;0.40;0.40;;;;;;;;;;4958198;28;20115;-78
2023/10/22 10:08:18;;;;;;;0.30;0.30;;;;;;;;;;4973080;28;20101;-79
2023/10/22 10:11:03;;;;;;;0.30;0.30;;;;;;;;;;4969968;28;20038;-85
2023/10/22 10:13:33;;;;;;;0.30;0.30;;;665.60;2124.80;;;;;;4948651;29;20023;-83
2023/10/22 10:16:00;;;;;;;0.47;0.40;;;640.80;2099.20;;;;;;4960248;28;20041;-79
2023/10/22 10:19:00;;;;;;;5.47;0.60;;;640.70;2124.80;;;;;;4968035;28;20030;-81
2023/10/22 10:21:43;;;;;;;0.45;0.45;;;640.80;2124.80;;;;;;4957137;28;20031;-83
2023/10/22 10:24:17;;;;;;;0.30;0.30;;;640.90;2099.20;;;;;;4960912;28;20042;-81
2023/10/22 10:26:43;;;;;;;0.30;0.30;;;640.80;2099.20;;;;;;4963665;28;20036;-82
2023/10/22 10:29:21;;;;;;;0.30;0.30;;;640.80;2099.20;;;;;;4968535;28;20061;-80
2023/10/22 10:31:53;;;;;;;0.40;0.40;;;665.60;2124.80;;;;;;4954892;28;20033;-83
2023/10/22 10:34:31;;;;;;;0.40;0.40;;;665.70;2124.80;;;;;;4954903;29;20027;-82
2023/10/22 10:37:07;;;;;;;0.30;0.30;;;665.90;2099.20;;;;;;4967304;28;20117;-80
2023/10/22 10:39:47;;;;;;;0.98;0.70;;;665.90;2099.20;;;;;;4976380;28;20139;-81
2023/10/22 10:42:38;;;;;;;0.45;0.45;;;665.90;2099.20;;;;;;4969054;28;20083;-79
2023/10/22 10:45:07;;;;;;;1.35;1.20;;;665.90;2099.20;;;;;;4961434;28;20090;-80
2023/10/22 10:47:38;;;;;;;3.00;1.30;;;665.90;2099.20;;;;;;4958212;28;20122;-81
2023/10/22 10:50:05;;;;;;;0.75;0.60;;;665.90;2099.20;;;;;;4968490;28;20340;-79
2023/10/22 10:52:45;;;;;;;0.60;0.60;;;666.00;2099.20;;;;;;4964395;28;20125;-79
2023/10/22 10:55:14;;;;;;;1.58;1.15;;;666.20;2099.20;;;;;;4959725;28;20147;-81
2023/10/22 10:57:46;;;;;;;0.50;0.50;;;666.20;2099.20;;;;;;4954382;29;20031;-80
2023/10/22 11:00:19;;;;;;;0.50;0.50;;;666.30;2099.20;;;;;;4962716;28;20023;-80
2023/10/22 11:02:46;;;;;;;0.45;0.38;;;666.30;2099.20;;;;;;4963042;28;20036;-81
2023/10/22 11:05:14;;;;;;;0.30;0.30;;;666.30;2073.60;;;;;;4967897;28;20027;-81
2023/10/22 11:07:42;;;;;;;0.40;0.40;;;666.30;2099.20;;;;;;4956141;28;20035;-81
2023/10/22 11:10:16;;;;;;;0.30;0.30;;;666.40;2099.20;;;;;;4960188;28;20118;-79
2023/10/22 11:12:43;;;;;;;1.70;0.40;;;691.30;2073.60;;;;;;4970949;28;20039;-79
2023/10/22 11:15:10;;;;;;;0.30;0.30;;;691.30;2073.60;;;;;;4957275;28;20543;-79
2023/10/22 11:17:45;;;;;;;0.95;0.93;;;;;;;;;;4969226;28;20031;-80
2023/10/22 11:20:13;;;;;;;0.77;0.77;;;691.80;2048.00;;;;;;4958627;28;20022;-78
2023/10/22 11:22:39;;;;;;;0.82;0.75;;;691.90;2022.40;;;;;;4962722;28;20460;-78
2023/10/22 11:25:07;;;;;;;0.40;0.40;;;;;;;;;;4983333;28;20089;-78
2023/10/22 11:27:34;;;;;;;0.35;0.30;;;;;;;;;;4960499;28;20441;-80
2023/10/22 11:30:00;;;;;;;0.93;0.55;;;;;;;;;;4975237;28;20026;-80
2023/10/22 11:32:26;;;;;;;0.30;0.30;;;;;;;;;;4982735;28;20026;-81
2023/10/22 11:34:54;;;;;;;1.08;0.88;;;;;;;;;;5001530;28;20222;-80
2023/10/22 11:37:22;;;;;;;0.25;0.25;;;;;;;;;;4978148;28;20031;-80
2023/10/22 11:39:49;;;;;;;0.40;0.40;;;;;;;;;;4972715;28;20147;-81
2023/10/22 11:42:15;;;;;;;0.30;0.30;;;;;;;;;;4966449;28;20470;-80
2023/10/22 11:44:43;;;;;;;0.65;0.50;;;;;;;;;;4986745;28;20046;-80
2023/10/22 11:47:26;;;;;;;0.40;0.40;;;;;;;;;;4974025;28;20386;-82
2023/10/22 11:49:55;;;;;;;0.30;0.30;;;;;;;;;;4960784;28;20018;-79
2023/10/22 11:52:40;;;;;;;0.63;0.63;;;;;;;;;;4971972;28;20467;-80
2023/10/22 11:55:08;;;;;;;0.85;0.73;;;;;;;;;;4979462;28;20114;-81
2023/10/22 11:57:37;;;;;;;0.30;0.30;;;;;;;;;;4980861;28;20038;-80
2023/10/22 12:00:04;;;;;;;1.00;0.85;;;;;;;;;;4973741;28;20018;-78
2023/10/22 12:02:31;;;;;;;0.30;0.30;;;;;;;;;;4968677;28;20058;-79
2023/10/22 12:04:57;;;;;;;0.30;0.30;;;;;;;;;;4987999;28;20023;-80
2023/10/22 12:07:23;;;;;;;0.30;0.30;;;;;;;;;;4979302;28;20530;-79
2023/10/22 12:09:50;;;;;;;0.32;0.32;;;;;;;;;;5001089;28;20018;-79
2023/10/22 12:12:16;;;;;;;1.05;0.95;;;;;;;;;;4998893;28;20025;-82
2023/10/22 12:14:42;;;;;;;0.30;0.30;;;;;;;;;;4998567;28;20022;-80
2023/10/22 12:17:09;;;;;;;0.30;0.30;;;;;;;;;;4999012;28;20036;-80
2023/10/22 12:19:35;;;;;;;0.22;0.22;;;742.40;1945.60;;;;;;4999081;28;20046;-80
2023/10/22 12:22:01;;;;;;;0.50;0.50;;;717.60;1920.00;;;;;;4998691;28;20057;-80
2023/10/22 12:24:26;;;;;;;0.45;0.45;;;717.50;1945.60;;;;;;4998738;28;20064;-80
2023/10/22 12:26:52;;;;;;;0.20;0.20;;;717.50;1945.60;;;;;;4998374;28;20096;-79
2023/10/22 12:29:18;;;;;;;0.50;0.50;;;717.70;1945.60;;;;;;4999041;28;20149;-80
2023/10/22 12:31:44;;;;;;;0.30;0.30;;;742.50;1971.20;;;;;;5011369;28;20069;-82
2023/10/22 12:34:10;;;;;;;0.22;0.22;;;;;;;;;;4975732;28;20077;-82
2023/10/22 12:36:36;;;;;;;0.30;0.30;;;;;;;;;;4993247;28;20033;-81
2023/10/22 12:39:03;;;;;;;0.30;0.30;;;;;;;;;;4979383;28;20057;-80
2023/10/22 12:41:29;;;;;;;0.60;0.60;;;;;;;;;;4978676;28;20033;-80
2023/10/22 12:43:55;;;;;;;0.35;0.35;;;;;;;;;;4979003;28;20084;-79
2023/10/22 12:46:21;;;;;;;0.20;0.20;;;;;;;;;;4966718;28;20100;-80
2023/10/22 12:48:47;;;;;;;0.28;0.28;;;;;;;;;;4995934;28;20463;-78
2023/10/22 12:51:13;;;;;;;3.92;0.43;;;;;;;;;;4988042;28;20124;-81
2023/10/22 12:53:39;;;;;;;0.30;0.30;;;;;;;;;;4997034;28;20022;-79